Time;durP1;ratioP1;P1;durP2;ratioP2;P2;SDS_P1;SDS_P2;PMS_P1;PMS_P2;Temp;Humidity;BMP_temperature;BMP_pressure;BME280_temperature;BME280_humidity;BME280_pressure;Samples;Min_cycle;Max_cycle;Signal;HPM_P1;HPM_P2
2024/01/18 00:00:08;;;;;;;36.58;18.77;;;;;;;-3.37;100.00;98956.84;4939648;29;20239;-44
2024/01/18 00:02:33;;;;;;;34.63;19.05;;;;;;;-3.32;100.00;98958.53;4939474;29;20269;-46
2024/01/18 00:04:59;;;;;;;32.20;17.98;;;;;;;-3.26;100.00;98967.19;4944559;28;20745;-45
2024/01/18 00:07:24;;;;;;;28.08;17.85;;;;;;;-3.23;100.00;98967.19;4941686;29;20183;-44
2024/01/18 00:09:50;;;;;;;27.17;16.88;;;;;;;-3.20;100.00;98969.75;4941401;29;20266;-45
2024/01/18 00:12:15;;;;;;;26.33;16.90;;;;;;;-3.23;100.00;98980.28;4936378;29;20191;-45
2024/01/18 00:14:41;;;;;;;29.15;17.60;;;;;;;-3.14;100.00;98982.75;4937816;29;20366;-44
2024/01/18 00:17:06;;;;;;;29.95;17.40;;;;;;;-3.15;100.00;98987.16;4942061;29;20882;-47
2024/01/18 00:19:32;;;;;;;32.20;18.50;;;;;;;-3.15;100.00;98992.38;4937438;29;20238;-44
2024/01/18 00:21:57;;;;;;;30.42;17.73;;;;;;;-3.18;100.00;98991.53;4938360;29;20257;-45
2024/01/18 00:24:23;;;;;;;29.98;17.83;;;;;;;-3.18;100.00;98988.94;4925806;29;20179;-46
2024/01/18 00:26:48;;;;;;;31.58;18.33;;;;;;;-3.17;100.00;98986.28;4940570;29;20175;-44
2024/01/18 00:29:14;;;;;;;31.48;17.85;;;;;;;-3.06;100.00;98986.16;4931083;29;20618;-46
2024/01/18 00:31:40;;;;;;;27.30;16.92;;;;;;;-3.01;100.00;98993.97;4939949;29;20730;-46
2024/01/18 00:34:05;;;;;;;36.15;19.67;;;;;;;-3.20;100.00;98998.56;4938054;29;20741;-47
2024/01/18 00:36:31;;;;;;;32.92;18.08;;;;;;;-3.12;100.00;98996.72;4940134;28;20227;-45
2024/01/18 00:38:56;;;;;;;34.70;19.60;;;;;;;-3.06;100.00;98990.50;4939349;29;20174;-45
2024/01/18 00:41:24;;;;;;;32.97;18.35;;;;;;;-3.14;100.00;99001.97;4938363;29;20716;-44
2024/01/18 00:43:49;;;;;;;31.42;17.63;;;;;;;-3.27;100.00;98997.75;4937781;29;20283;-44
2024/01/18 00:46:19;;;;;;;28.10;17.52;;;;;;;-3.23;100.00;99014.31;4943177;28;20279;-46
2024/01/18 00:48:44;;;;;;;29.00;17.15;;;;;;;-3.29;100.00;99009.13;4942874;29;20481;-47
2024/01/18 00:51:10;;;;;;;28.42;17.67;;;;;;;-3.34;100.00;99014.44;4936069;29;20230;-46
2024/01/18 00:53:35;;;;;;;28.40;17.50;;;;;;;-3.27;100.00;99012.63;4939503;29;20630;-45
2024/01/18 00:56:01;;;;;;;29.02;17.30;;;;;;;-3.41;100.00;99012.75;4937085;29;20199;-46
2024/01/18 00:58:26;;;;;;;27.20;16.63;;;;;;;-3.34;100.00;99017.06;4945539;29;20182;-44
2024/01/18 01:00:51;;;;;;;27.23;17.13;;;;;;;-3.49;100.00;99006.75;4941961;29;20610;-44
2024/01/18 01:03:17;;;;;;;27.55;16.45;;;;;;;-3.55;100.00;99012.91;4938433;29;20677;-46
2024/01/18 01:05:42;;;;;;;24.70;15.57;;;;;;;-3.54;100.00;99018.13;4938079;29;20223;-45
2024/01/18 01:08:08;;;;;;;27.65;16.15;;;;;;;-3.55;100.00;99023.38;4942387;29;20650;-45
2024/01/18 01:10:33;;;;;;;25.17;15.32;;;;;;;-3.55;100.00;99020.75;4938288;29;20191;-46
2024/01/18 01:12:59;;;;;;;26.63;16.33;;;;;;;-3.54;100.00;99023.38;4940907;29;20274;-44
2024/01/18 01:15:24;;;;;;;29.02;17.40;;;;;;;-3.60;100.00;99025.19;4938756;28;20222;-45
2024/01/18 01:17:50;;;;;;;25.75;15.30;;;;;;;-3.54;100.00;99032.97;4939905;29;20591;-45
2024/01/18 01:20:15;;;;;;;24.67;15.43;;;;;;;-3.63;100.00;99043.53;4937659;29;20179;-45
2024/01/18 01:22:41;;;;;;;26.02;16.40;;;;;;;-3.64;100.00;99041.78;4942114;29;20273;-47
2024/01/18 01:25:07;;;;;;;25.77;15.13;;;;;;;-3.62;100.00;99068.81;4940359;29;20234;-45
2024/01/18 01:27:33;;;;;;;26.33;16.15;;;;;;;-3.66;100.00;99064.50;4939366;29;20592;-45
2024/01/18 01:29:58;;;;;;;25.15;14.85;;;;;;;-3.71;100.00;99071.53;4936288;28;20175;-47
2024/01/18 01:32:24;;;;;;;22.98;13.93;;;;;;;-3.73;100.00;99067.16;4937934;29;20705;-47
2024/01/18 01:34:50;;;;;;;24.17;14.90;;;;;;;-3.78;100.00;99078.56;4924022;29;20409;-48
2024/01/18 01:37:16;;;;;;;26.95;15.70;;;;;;;-3.82;100.00;99080.34;4939217;29;20203;-45
2024/01/18 01:39:41;;;;;;;23.95;14.90;;;;;;;-3.83;100.00;99070.72;4941521;29;20252;-46
2024/01/18 01:42:08;;;;;;;23.50;15.30;;;;;;;-3.77;100.00;99068.06;4942067;29;20198;-46
2024/01/18 01:44:34;;;;;;;22.98;13.73;;;;;;;-3.82;100.00;99075.09;4936968;29;20240;-45
2024/01/18 01:46:59;;;;;;;26.75;15.32;;;;;;;-3.89;100.00;99091.75;4940859;29;20198;-46
2024/01/18 01:49:25;;;;;;;24.75;14.68;;;;;;;-3.96;100.00;99095.25;4934374;28;20629;-46
2024/01/18 01:51:52;;;;;;;25.20;15.07;;;;;;;-3.98;100.00;99086.56;4937591;29;20608;-44
2024/01/18 01:54:21;;;;;;;23.92;14.02;;;;;;;-3.92;100.00;99090.88;4939527;29;20218;-45
2024/01/18 01:56:51;;;;;;;22.92;14.13;;;;;;;-3.95;100.00;99087.41;4937777;29;20221;-45
2024/01/18 01:59:17;;;;;;;22.13;14.52;;;;;;;-4.08;100.00;99095.38;4941321;29;20230;-45
2024/01/18 02:01:45;;;;;;;22.08;14.07;;;;;;;-3.96;100.00;99096.16;4940568;29;20570;-44
2024/01/18 02:04:11;;;;;;;23.70;14.25;;;;;;;-4.18;100.00;99087.56;4936670;28;20535;-47
2024/01/18 02:06:46;;;;;;;24.80;14.15;;;;;;;-4.29;100.00;99089.38;4945919;29;20585;-46
2024/01/18 02:09:12;;;;;;;21.40;13.43;;;;;;;-4.26;100.00;99101.59;4937993;29;20175;-45
2024/01/18 02:11:37;;;;;;;22.90;13.90;;;;;;;-4.23;100.00;99096.34;4937954;29;20190;-46
2024/01/18 02:14:03;;;;;;;23.88;14.77;;;;;;;-4.35;100.00;99112.97;4941208;29;20283;-45
2024/01/18 02:16:30;;;;;;;24.52;14.02;;;;;;;-4.44;100.00;99111.28;4940885;29;20665;-46
2024/01/18 02:18:56;;;;;;;29.90;13.95;;;;;;;-4.38;100.00;99112.97;4940726;28;20194;-45
2024/01/18 02:21:25;;;;;;;21.17;13.18;;;;;;;-4.29;100.00;99125.13;4940283;29;20775;-45
2024/01/18 02:23:57;;;;;;;22.67;14.57;;;;;;;-4.33;100.00;99132.09;4940948;29;20278;-45
2024/01/18 02:26:23;;;;;;;25.77;15.13;;;;;;;-4.38;100.00;99132.13;4940500;29;20206;-46
2024/01/18 02:28:56;;;;;;;22.23;13.85;;;;;;;-4.40;100.00;99112.13;4943110;29;20191;-45
2024/01/18 02:31:22;;;;;;;24.30;14.52;;;;;;;-4.48;100.00;99121.72;4935577;29;20188;-45
2024/01/18 02:33:49;;;;;;;19.92;13.73;;;;;;;-4.40;100.00;99125.19;4944527;29;20205;-45
2024/01/18 02:36:15;;;;;;;23.73;13.80;;;;;;;-4.43;100.00;99117.38;4942476;28;20225;-45
2024/01/18 02:38:41;;;;;;;27.63;15.00;;;;;;;-4.47;100.00;99128.72;4942253;29;20519;-47
2024/01/18 02:41:07;;;;;;;20.65;13.25;;;;;;;-4.47;100.00;99124.34;4939862;29;20290;-45
2024/01/18 02:43:33;;;;;;;22.00;14.15;;;;;;;-4.50;100.00;99124.38;4941287;29;20289;-47
2024/01/18 02:45:59;;;;;;;20.65;13.70;;;;;;;-4.59;100.00;99112.22;4941321;28;20213;-45
2024/01/18 02:48:25;;;;;;;23.98;14.75;;;;;;;-4.63;100.00;99122.69;4936825;29;20191;-47
2024/01/18 02:50:51;;;;;;;27.08;14.98;;;;;;;-4.61;100.00;99124.44;4942953;29;20198;-46
2024/01/18 02:53:19;;;;;;;22.63;14.07;;;;;;;-4.58;100.00;99120.94;4944748;29;20190;-43
2024/01/18 02:55:45;;;;;;;26.13;15.00;;;;;;;-4.62;100.00;99122.66;4938352;28;20223;-45
2024/01/18 02:58:11;;;;;;;22.10;14.00;;;;;;;-4.54;100.00;99117.44;4942179;29;20657;-45
2024/01/18 03:00:38;;;;;;;22.08;14.75;;;;;;;-4.69;100.00;99134.03;4936715;28;20286;-45
2024/01/18 03:03:04;;;;;;;24.88;14.93;;;;;;;-4.58;100.00;99134.84;4935540;29;20191;-45
2024/01/18 03:05:31;;;;;;;23.10;13.88;;;;;;;-4.72;100.00;99130.56;4938267;29;20251;-45
2024/01/18 03:07:56;;;;;;;21.58;14.70;;;;;;;-4.75;100.00;99131.44;4943302;29;20595;-45
2024/01/18 03:10:22;;;;;;;26.70;14.90;;;;;;;-4.77;100.00;99136.69;4943659;29;20187;-45
2024/01/18 03:12:47;;;;;;;27.95;15.45;;;;;;;-4.89;100.00;99147.16;4941536;29;20238;-44
2024/01/18 03:15:13;;;;;;;23.30;14.23;;;;;;;-4.83;100.00;99138.44;4942797;28;20226;-46
2024/01/18 03:17:38;;;;;;;21.73;13.52;;;;;;;-4.93;100.00;99137.59;4941758;29;20269;-45
2024/01/18 03:20:07;;;;;;;18.85;12.85;;;;;;;-4.86;100.00;99135.84;4921697;29;20666;-46
2024/01/18 03:22:41;;;;;;;21.92;12.85;;;;;;;-4.85;100.00;99133.22;4936787;29;20199;-45
2024/01/18 03:25:07;;;;;;;20.15;14.10;;;;;;;-4.89;100.00;99139.34;4939766;29;20221;-46
2024/01/18 03:27:33;;;;;;;22.80;14.48;;;;;;;-4.90;100.00;99141.94;4944153;29;20660;-45
2024/01/18 03:29:59;;;;;;;22.35;13.02;;;;;;;-4.90;100.00;99139.34;4943107;29;20190;-46
2024/01/18 03:32:24;;;;;;;19.60;13.13;;;;;;;-4.88;100.00;99142.81;4940123;29;20198;-45
2024/01/18 03:34:50;;;;;;;17.73;11.77;;;;;;;-4.93;100.00;99145.44;4944772;29;20214;-44
2024/01/18 03:37:16;;;;;;;19.02;13.73;;;;;;;-4.99;100.00;99135.88;4940531;29;20278;-45
2024/01/18 03:39:42;;;;;;;20.65;13.65;;;;;;;-4.95;100.00;99148.94;4939280;29;20291;-45
2024/01/18 03:42:07;;;;;;;19.58;12.82;;;;;;;-5.09;100.00;99154.19;4936689;29;20208;-46
2024/01/18 03:44:34;;;;;;;20.45;13.20;;;;;;;-5.13;100.00;99150.72;4937089;29;20638;-45
2024/01/18 03:47:00;;;;;;;20.52;12.35;;;;;;;-5.08;100.00;99159.41;4942346;29;20201;-46
2024/01/18 03:49:26;;;;;;;19.90;13.07;;;;;;;-5.05;100.00;99167.25;4929298;29;20195;-47
2024/01/18 03:51:51;;;;;;;22.77;14.77;;;;;;;-5.12;100.00;99160.28;4940809;29;20194;-46
2024/01/18 03:54:18;;;;;;;26.75;13.38;;;;;;;-5.10;100.00;99170.72;4935765;29;20197;-46
2024/01/18 03:56:43;;;;;;;19.67;12.77;;;;;;;-5.17;100.00;99157.66;4935629;29;20242;-45
2024/01/18 03:59:13;;;;;;;17.67;12.45;;;;;;;-5.21;100.00;99162.91;4930671;29;20183;-45
2024/01/18 04:01:39;;;;;;;21.60;13.95;;;;;;;-5.24;100.00;99160.31;4936396;29;20262;-45
2024/01/18 04:04:04;;;;;;;21.02;13.50;;;;;;;-5.23;100.00;99155.06;4943369;29;20213;-46
2024/01/18 04:06:30;;;;;;;22.55;13.82;;;;;;;-5.34;100.00;99151.59;4937427;29;20207;-48
2024/01/18 04:08:55;;;;;;;23.52;13.43;;;;;;;-5.37;100.00;99141.19;4940389;29;20191;-48
2024/01/18 04:11:21;;;;;;;25.73;14.63;;;;;;;-5.38;100.00;99152.47;4938766;29;20265;-48
2024/01/18 04:13:47;;;;;;;24.10;14.43;;;;;;;-5.35;100.00;99164.69;4943732;29;20746;-46
2024/01/18 04:16:13;;;;;;;24.70;13.70;;;;;;;-5.31;100.00;99172.50;4901591;29;20583;-48
2024/01/18 04:18:38;;;;;;;20.63;13.60;;;;;;;-5.39;100.00;99171.63;4930227;29;20582;-47
2024/01/18 04:21:04;;;;;;;19.35;13.82;;;;;;;-5.55;100.00;99168.16;4939460;29;20208;-48
2024/01/18 04:23:30;;;;;;;20.90;13.10;;;;;;;-5.47;100.00;99169.00;4938598;28;20625;-49
2024/01/18 04:25:56;;;;;;;23.65;14.23;;;;;;;-5.47;100.00;99176.84;4940673;29;20213;-48
2024/01/18 04:28:21;;;;;;;23.13;13.70;;;;;;;-5.51;100.00;99182.06;4940446;29;20190;-46
2024/01/18 04:30:48;;;;;;;20.42;12.73;;;;;;;-5.41;100.00;99173.38;4938739;29;20187;-49
2024/01/18 04:33:13;;;;;;;16.83;11.68;;;;;;;-4.98;100.00;99182.00;4931675;29;20309;-47
2024/01/18 04:35:39;;;;;;;17.40;10.82;;;;;;;-4.59;100.00;99174.06;4942086;28;20613;-48
2024/01/18 04:38:06;;;;;;;18.33;10.52;;;;;;;-4.49;100.00;99186.22;4938321;28;20179;-48
2024/01/18 04:40:33;;;;;;;21.98;12.13;;;;;;;-4.55;100.00;99178.38;4938522;29;20191;-48
2024/01/18 04:42:58;;;;;;;19.73;10.82;;;;;;;-4.50;100.00;99175.75;4942377;29;20583;-46
2024/01/18 04:45:24;;;;;;;22.88;10.95;;;;;;;-4.50;100.00;99173.13;4935992;29;20214;-48
2024/01/18 04:47:52;;;;;;;19.38;12.00;;;;;;;-4.57;100.00;99175.81;4940756;29;20326;-47
2024/01/18 04:50:20;;;;;;;19.63;11.60;;;;;;;-4.49;100.00;99177.50;4938929;29;20184;-49
2024/01/18 04:52:47;;;;;;;18.10;12.13;;;;;;;-4.47;100.00;99179.22;4941323;29;20186;-46
2024/01/18 04:55:13;;;;;;;19.23;11.70;;;;;;;-4.47;100.00;99176.63;4938100;29;20215;-46
2024/01/18 04:57:39;;;;;;;17.67;11.52;;;;;;;-4.40;100.00;99180.06;4938116;29;20638;-49
2024/01/18 05:00:10;;;;;;;16.35;10.25;;;;;;;-4.27;100.00;99179.13;4939492;29;20611;-47
2024/01/18 05:02:39;;;;;;;15.63;10.95;;;;;;;-4.23;100.00;99177.38;4938907;29;20262;-46
2024/01/18 05:05:08;;;;;;;17.95;10.65;;;;;;;-4.20;100.00;99182.59;4940509;28;20207;-46
2024/01/18 05:07:34;;;;;;;20.55;10.65;;;;;;;-4.28;100.00;99198.34;4938473;29;20194;-47
2024/01/18 05:09:59;;;;;;;18.48;11.07;;;;;;;-4.37;100.00;99183.56;4937045;29;20187;-48
2024/01/18 05:12:25;;;;;;;19.65;12.52;;;;;;;-4.41;100.00;99183.59;4940593;28;20291;-48
2024/01/18 05:14:50;;;;;;;16.10;11.43;;;;;;;-4.48;100.00;99187.97;4941636;28;20668;-47
2024/01/18 05:17:16;;;;;;;24.15;12.48;;;;;;;-4.53;100.00;99191.47;4939294;29;20187;-48
2024/01/18 05:19:43;;;;;;;21.15;12.02;;;;;;;-4.53;100.00;99197.53;4939328;29;20991;-48
2024/01/18 05:22:09;;;;;;;22.65;12.75;;;;;;;-4.51;100.00;99195.81;4939479;29;20507;-47
2024/01/18 05:24:35;;;;;;;19.27;11.82;;;;;;;-4.54;100.00;99206.28;4939320;29;20209;-48
2024/01/18 05:27:00;;;;;;;22.10;12.65;;;;;;;-4.76;100.00;99202.88;4939032;28;20202;-48
2024/01/18 05:29:26;;;;;;;15.90;11.63;;;;;;;-4.71;100.00;99208.06;4939130;29;20183;-48
2024/01/18 05:31:51;;;;;;;17.40;12.10;;;;;;;-4.87;100.00;99215.94;4939818;29;20209;-47
2024/01/18 05:34:17;;;;;;;20.08;12.45;;;;;;;-4.84;100.00;99222.91;4930173;29;20291;-47
2024/01/18 05:36:43;;;;;;;18.80;12.88;;;;;;;-4.89;100.00;99214.22;4938343;29;20184;-47
2024/01/18 05:39:08;;;;;;;18.75;11.63;;;;;;;-4.84;100.00;99217.69;4943616;28;20187;-48
2024/01/18 05:41:34;;;;;;;17.30;11.18;;;;;;;-4.98;100.00;99215.97;4944989;29;20542;-47
2024/01/18 05:44:00;;;;;;;20.08;12.57;;;;;;;-5.20;100.00;99216.88;4950335;23;20222;-47
2024/01/18 05:46:26;;;;;;;16.35;10.80;;;;;;;-5.11;100.00;99219.47;4928942;29;20214;-48
2024/01/18 05:48:51;;;;;;;21.00;11.48;;;;;;;-5.15;100.00;99229.91;4921327;29;20198;-46
2024/01/18 05:51:17;;;;;;;19.05;11.75;;;;;;;-5.13;100.00;99225.56;4923764;29;20186;-46
2024/01/18 05:53:43;;;;;;;14.98;10.95;;;;;;;-5.21;100.00;99228.16;4925715;29;20717;-47
2024/01/18 05:56:08;;;;;;;16.35;11.23;;;;;;;-5.40;100.00;99235.13;4916153;29;20215;-46
2024/01/18 05:58:34;;;;;;;17.65;11.88;;;;;;;-5.34;100.00;99236.88;4924011;29;20183;-45
2024/01/18 06:01:03;;;;;;;18.63;11.93;;;;;;;-5.35;100.00;99233.41;4924399;29;20179;-47
2024/01/18 06:03:28;;;;;;;21.58;12.15;;;;;;;-5.49;100.00;99242.94;4924104;29;20554;-47
2024/01/18 06:05:54;;;;;;;21.90;11.70;;;;;;;-5.71;100.00;99236.84;4922644;29;20225;-46
2024/01/18 06:08:19;;;;;;;17.35;12.55;;;;;;;-5.86;100.00;99240.28;4921644;29;20729;-48
2024/01/18 06:10:45;;;;;;;15.18;11.57;;;;;;;-5.80;100.00;99232.47;4928142;29;20192;-47
2024/01/18 06:13:10;;;;;;;16.00;11.68;;;;;;;-5.68;100.00;99236.88;4924940;29;20274;-47
2024/01/18 06:15:36;;;;;;;16.85;11.77;;;;;;;-5.69;100.00;99237.72;4920968;29;20203;-47
2024/01/18 06:18:03;;;;;;;16.75;12.18;;;;;;;-5.63;100.00;99238.59;4925265;29;20179;-47
2024/01/18 06:20:32;;;;;;;18.05;11.65;;;;;;;-5.70;100.00;99255.13;4925638;29;20195;-48
2024/01/18 06:22:58;;;;;;;21.58;12.25;;;;;;;-5.72;100.00;99256.84;4914848;29;20195;-48
2024/01/18 06:25:24;;;;;;;18.55;12.13;;;;;;;-5.72;100.00;99262.06;4923165;29;20204;-47
2024/01/18 06:27:50;;;;;;;20.80;12.25;;;;;;;-5.89;100.00;99255.94;4922735;29;20206;-47
2024/01/18 06:30:18;;;;;;;18.75;12.27;;;;;;;-6.05;100.00;99258.53;4909552;29;20184;-48
2024/01/18 06:32:44;;;;;;;20.95;13.20;;;;;;;-5.91;100.00;99262.88;4923531;29;20188;-46
2024/01/18 06:35:10;;;;;;;19.20;12.45;;;;;;;-5.89;100.00;99263.75;4919844;29;20235;-48
2024/01/18 06:37:36;;;;;;;19.58;12.65;;;;;;;-5.82;100.00;99266.38;4922515;29;20187;-44
2024/01/18 06:40:02;;;;;;;19.17;13.07;;;;;;;-5.93;100.00;99273.28;4925849;29;20698;-47
2024/01/18 06:42:28;;;;;;;17.85;12.73;;;;;;;-6.06;100.00;99272.41;4924042;29;20179;-48
2024/01/18 06:44:54;;;;;;;21.55;13.40;;;;;;;-6.01;100.00;99273.31;4923120;29;20314;-49
2024/01/18 06:47:19;;;;;;;19.25;13.40;;;;;;;-5.99;100.00;99282.88;4917708;29;20602;-48
2024/01/18 06:49:45;;;;;;;24.40;13.35;;;;;;;-5.96;100.00;99277.69;4920673;29;20191;-46
2024/01/18 06:52:11;;;;;;;21.13;14.02;;;;;;;-5.97;100.00;99287.22;4925538;29;20215;-47
2024/01/18 06:54:36;;;;;;;19.40;13.15;;;;;;;-6.00;100.00;99292.44;4920053;29;20254;-46
2024/01/18 06:57:03;;;;;;;17.30;12.07;;;;;;;-5.85;100.00;99288.97;4924445;29;20274;-46
2024/01/18 06:59:29;;;;;;;21.00;13.18;;;;;;;-5.90;100.00;99299.41;4923878;29;20278;-46
2024/01/18 07:01:55;;;;;;;20.77;12.45;;;;;;;-5.89;100.00;99295.06;4924286;29;20184;-49
2024/01/18 07:04:21;;;;;;;19.08;13.07;;;;;;;-5.83;100.00;99305.50;4909788;29;20579;-47
2024/01/18 07:06:47;;;;;;;20.73;12.93;;;;;;;-5.78;100.00;99302.91;4910397;29;20179;-48
2024/01/18 07:09:12;;;;;;;21.20;13.55;;;;;;;-5.84;100.00;99302.03;4921644;29;20198;-47
2024/01/18 07:11:38;;;;;;;20.88;13.20;;;;;;;-5.86;100.00;99308.97;4916455;29;20175;-48
2024/01/18 07:14:04;;;;;;;16.58;12.48;;;;;;;-5.86;100.00;99322.03;4920837;29;20202;-48
2024/01/18 07:16:29;;;;;;;16.25;12.10;;;;;;;-5.86;100.00;99308.97;4920498;29;20207;-49
2024/01/18 07:18:55;;;;;;;24.50;12.35;;;;;;;-5.87;100.00;99312.44;4926377;29;20593;-47
2024/01/18 07:21:21;;;;;;;19.35;12.20;;;;;;;-5.90;100.00;99322.00;4924084;29;21020;-47
2024/01/18 07:23:46;;;;;;;21.25;12.35;;;;;;;-5.85;100.00;99317.66;4922729;29;20210;-48
2024/01/18 07:26:12;;;;;;;19.02;13.95;;;;;;;-5.94;100.00;99335.94;4918230;29;20212;-47
2024/01/18 07:28:38;;;;;;;19.15;13.05;;;;;;;-5.87;100.00;99328.09;4922774;29;20192;-48
2024/01/18 07:31:03;;;;;;;26.75;14.35;;;;;;;-5.82;100.00;99320.28;4920552;29;20259;-47
2024/01/18 07:33:29;;;;;;;21.23;13.73;;;;;;;-5.93;100.00;99322.84;4923173;29;20192;-47
2024/01/18 07:35:54;;;;;;;21.65;13.80;;;;;;;-5.90;100.00;99343.72;4921444;29;20223;-46
2024/01/18 07:38:20;;;;;;;20.65;13.68;;;;;;;-5.92;100.00;99340.25;4919921;29;20212;-46
2024/01/18 07:40:45;;;;;;;22.00;14.05;;;;;;;-6.06;100.00;99329.78;4921943;29;20203;-48
2024/01/18 07:43:11;;;;;;;19.88;12.88;;;;;;;-5.89;100.00;99342.00;4904058;29;20252;-48
2024/01/18 07:45:36;;;;;;;18.65;13.02;;;;;;;-5.90;100.00;99338.50;4918053;29;20212;-47
2024/01/18 07:48:02;;;;;;;22.83;12.85;;;;;;;-6.05;100.00;99330.66;4916029;29;20188;-49
2024/01/18 07:50:28;;;;;;;21.30;14.50;;;;;;;-5.85;100.00;99333.31;4924467;29;20575;-47
2024/01/18 07:52:53;;;;;;;20.77;13.43;;;;;;;-5.75;100.00;99336.81;4923772;29;20210;-47
2024/01/18 07:55:20;;;;;;;17.52;12.50;;;;;;;-5.65;100.00;99326.41;4920236;29;20215;-47
2024/01/18 07:57:46;;;;;;;21.48;13.98;;;;;;;-5.51;100.00;99341.22;4920084;29;20183;-47
2024/01/18 08:00:12;;;;;;;20.73;14.40;;;;;;;-5.51;100.00;99349.06;4917340;29;20595;-45
2024/01/18 08:02:38;;;;;;;22.73;14.73;;;;;;;-5.51;100.00;99352.56;4917728;29;20242;-47
2024/01/18 08:05:04;;;;;;;22.23;14.52;;;;;;;-5.62;100.00;99342.09;4919646;29;20646;-46
2024/01/18 08:07:29;;;;;;;20.70;14.27;;;;;;;-5.52;100.00;99353.41;4916449;29;20194;-47
2024/01/18 08:09:55;;;;;;;19.58;13.95;;;;;;;-5.47;100.00;99354.28;4924758;29;20697;-46
2024/01/18 08:12:20;;;;;;;19.50;13.70;;;;;;;-5.51;100.00;99363.00;4917795;29;20196;-47
2024/01/18 08:14:46;;;;;;;21.92;14.52;;;;;;;-5.41;100.00;99363.88;4918899;29;20216;-47
2024/01/18 08:17:11;;;;;;;18.35;13.60;;;;;;;-5.35;100.00;99361.28;4918300;29;20722;-46
2024/01/18 08:19:39;;;;;;;18.63;13.07;;;;;;;-5.25;100.00;99373.50;4915106;29;20191;-48
2024/01/18 08:22:04;;;;;;;19.33;12.65;;;;;;;-5.03;100.00;99374.41;4917917;29;20270;-48
2024/01/18 08:24:30;;;;;;;19.65;12.77;;;;;;;-4.93;100.00;99370.06;4921288;29;20356;-46
2024/01/18 08:26:55;;;;;;;18.58;12.77;;;;;;;-4.85;100.00;99375.28;4917473;29;20183;-46
2024/01/18 08:29:21;;;;;;;20.52;13.77;;;;;;;-4.95;100.00;99373.53;4920087;29;20187;-46
2024/01/18 08:31:46;;;;;;;18.77;12.68;;;;;;;-4.76;100.00;99377.91;4922130;29;20233;-49
2024/01/18 08:34:12;;;;;;;23.45;12.27;;;;;;;-4.67;100.00;99374.41;4908547;29;20199;-48
2024/01/18 08:36:37;;;;;;;18.42;11.60;;;;;;;-4.52;100.00;99381.38;4914715;29;20184;-47
2024/01/18 08:39:03;;;;;;;15.02;10.40;;;;;;;-4.25;100.00;99391.78;4920979;29;20635;-46
2024/01/18 08:41:28;;;;;;;20.48;10.48;;;;;;;-4.00;100.00;99394.34;4908496;29;20191;-47
2024/01/18 08:43:54;;;;;;;16.00;11.15;;;;;;;-3.89;100.00;99404.78;4918332;29;20194;-49
2024/01/18 08:46:19;;;;;;;14.98;10.82;;;;;;;-3.76;100.00;99402.16;4918552;29;20294;-47
2024/01/18 08:48:45;;;;;;;16.23;11.18;;;;;;;-3.55;100.00;99405.56;4923323;29;20230;-47
2024/01/18 08:51:13;;;;;;;18.92;11.07;;;;;;;-3.37;100.00;99400.25;4921820;29;20196;-47
2024/01/18 08:53:43;;;;;;;17.75;12.13;;;;;;;-3.22;100.00;99409.75;4917613;29;20239;-47
2024/01/18 08:56:08;;;;;;;17.23;11.98;;;;;;;-3.09;100.00;99417.56;4918923;29;20216;-46
2024/01/18 08:58:35;;;;;;;21.02;13.38;;;;;;;-3.03;100.00;99415.75;4924329;29;20195;-47
2024/01/18 09:01:01;;;;;;;18.52;11.73;;;;;;;-2.85;100.00;99416.53;4919587;29;20203;-46
2024/01/18 09:03:27;;;;;;;17.25;11.30;;;;;;;-2.67;100.00;99428.63;4918075;29;20301;-47
2024/01/18 09:05:52;;;;;;;17.55;10.77;;;;;;;-2.63;100.00;99428.59;4916393;29;20204;-46
2024/01/18 09:08:18;;;;;;;17.48;12.20;;;;;;;-2.66;100.00;99436.50;4919491;29;20200;-47
2024/01/18 09:10:44;;;;;;;16.95;11.73;;;;;;;-2.89;100.00;99436.63;4922732;29;20194;-46
2024/01/18 09:13:10;;;;;;;16.27;9.48;;;;;;;-2.74;100.00;99447.00;4907195;29;20266;-46
2024/01/18 09:15:36;;;;;;;13.38;9.80;;;;;;;-2.82;100.00;99447.94;4920238;29;20638;-47
2024/01/18 09:18:02;;;;;;;16.15;10.18;;;;;;;-2.96;100.00;99461.13;4916936;29;20609;-47
2024/01/18 09:20:27;;;;;;;13.02;9.13;;;;;;;-2.62;100.00;99463.56;4919330;29;20188;-46
2024/01/18 09:22:53;;;;;;;14.93;9.57;;;;;;;-2.57;100.00;99467.88;4910073;29;20183;-47
2024/01/18 09:25:19;;;;;;;15.50;9.18;;;;;;;-2.54;100.00;99473.09;4918813;29;20288;-47
2024/01/18 09:27:44;;;;;;;13.38;9.35;;;;;;;-2.35;100.00;99471.22;4921951;29;20182;-48
2024/01/18 09:30:11;;;;;;;11.98;8.05;;;;;;;-2.46;100.00;99480.91;4922581;29;20212;-47
2024/01/18 09:32:36;;;;;;;14.52;8.93;;;;;;;-2.59;100.00;99477.50;4918082;29;20184;-47
2024/01/18 09:35:05;;;;;;;10.85;8.25;;;;;;;-2.28;100.00;99470.28;4919725;29;20203;-46
2024/01/18 09:37:31;;;;;;;13.07;8.52;;;;;;;-2.36;100.00;99489.56;4920319;29;20180;-45
2024/01/18 09:39:57;;;;;;;14.55;8.15;;;;;;;-2.00;100.00;99505.91;4921775;29;20187;-44
2024/01/18 09:42:28;;;;;;;11.05;7.32;;;;;;;-1.71;100.00;99495.13;4919604;29;20192;-46
2024/01/18 09:44:59;;;;;;;9.18;6.70;;;;;;;-1.83;100.00;99506.66;4923525;29;20209;-45
2024/01/18 09:47:24;;;;;;;11.25;6.28;;;;;;;-1.82;100.00;99505.75;4919559;29;20545;-47
2024/01/18 09:49:51;;;;;;;14.00;6.82;;;;;;;-1.73;100.00;99513.56;4920623;29;20183;-46
2024/01/18 09:52:17;;;;;;;11.27;5.80;;;;;;;-1.75;100.00;99517.94;4919044;29;20687;-48
2024/01/18 09:54:42;;;;;;;10.45;6.15;;;;;;;-1.68;100.00;99517.00;4907975;29;20318;-46
2024/01/18 09:57:13;;;;;;;8.15;5.20;;;;;;;-1.72;100.00;99517.03;4921054;29;20702;-45
2024/01/18 09:59:44;;;;;;;11.57;5.93;;;;;;;-1.69;100.00;99527.50;4920284;29;20252;-46
2024/01/18 10:02:10;;;;;;;8.85;5.90;;;;;;;-1.70;100.00;99525.78;4917014;29;20189;-45
2024/01/18 10:04:36;;;;;;;15.07;5.93;;;;;;;-1.57;100.00;99524.78;4920039;29;20258;-45
2024/01/18 10:07:01;;;;;;;8.82;6.47;;;;;;;-1.64;100.00;99524.84;4922138;29;20704;-46
2024/01/18 10:09:28;;;;;;;9.27;5.63;;;;;;;-1.46;100.00;99540.44;4923059;29;20196;-46
2024/01/18 10:11:53;;;;;;;15.65;6.60;;;;;;;-1.48;100.00;99542.19;4922478;29;20195;-47
2024/01/18 10:14:41;;;;;;;11.05;5.60;;;;;;;-1.30;100.00;99546.38;4918684;29;20211;-47
2024/01/18 10:17:10;;;;;;;7.28;5.30;;;;;;;-1.40;100.00;99545.63;4918499;29;20279;-46
2024/01/18 10:19:35;;;;;;;13.02;6.65;;;;;;;-1.34;100.00;99553.41;4921344;29;20184;-46
2024/01/18 10:22:01;;;;;;;8.85;5.80;;;;;;;-1.27;100.00;99556.84;4919237;29;20200;-48
2024/01/18 10:24:26;;;;;;;10.75;6.32;;;;;;;-1.12;100.00;99550.56;4921189;29;20196;-46
2024/01/18 10:27:04;;;;;;;7.32;5.88;;;;;;;-1.30;100.00;99557.75;4925382;29;20184;-48
2024/01/18 10:29:37;;;;;;;9.13;6.20;;;;;;;-1.32;100.00;99553.41;4924734;29;20601;-46
2024/01/18 10:32:03;;;;;;;9.02;6.25;;;;;;;-1.12;100.00;99545.31;4903280;29;20183;-47
2024/01/18 10:34:39;;;;;;;10.23;5.90;;;;;;;-1.22;100.00;99559.41;4921593;29;20263;-45
2024/01/18 10:37:05;;;;;;;8.57;6.22;;;;;;;-1.28;100.00;99557.75;4922329;29;20290;-46
2024/01/18 10:39:39;;;;;;;8.90;5.72;;;;;;;-1.21;100.00;99562.03;4924274;29;20192;-47
2024/01/18 10:42:07;;;;;;;8.05;5.72;;;;;;;-0.97;100.00;99560.88;4913042;29;20685;-47
2024/01/18 10:44:40;;;;;;;8.80;6.00;;;;;;;-1.14;100.00;99565.47;4928232;29;20203;-47
2024/01/18 10:47:14;;;;;;;8.40;6.05;;;;;;;-1.01;100.00;99559.19;4923564;29;20195;-48
2024/01/18 10:49:40;;;;;;;6.82;4.78;;;;;;;-0.99;100.00;99564.44;4923545;29;20270;-48
2024/01/18 10:52:10;;;;;;;9.35;4.90;;;;;;;-0.94;100.00;99566.13;4920921;29;20176;-47
2024/01/18 10:54:37;;;;;;;6.47;4.72;;;;;;;-0.92;100.00;99563.47;4920987;29;20218;-46
2024/01/18 10:57:02;;;;;;;8.20;4.78;;;;;;;-0.86;100.00;99566.88;4915235;29;20192;-47
2024/01/18 10:59:29;;;;;;;7.93;4.60;;;;;;;-0.85;100.00;99573.91;4924280;29;20190;-45
2024/01/18 11:02:00;;;;;;;6.40;4.60;;;;;;;-0.69;100.00;99574.56;4923755;29;20223;-45
2024/01/18 11:04:27;;;;;;;6.90;4.78;;;;;;;-0.81;100.00;99576.47;4919539;29;20183;-46
2024/01/18 11:06:55;;;;;;;5.72;4.55;;;;;;;-0.70;100.00;99588.63;4923532;29;20179;-45